Time;durP1;ratioP1;P1;durP2;ratioP2;P2;SDS_P1;SDS_P2;PMS_P1;PMS_P2;Temp;Humidity;BMP_temperature;BMP_pressure;BME280_temperature;BME280_humidity;BME280_pressure;Samples;Min_cycle;Max_cycle;Signal;HPM_P1;HPM_P2
2023/03/08 00:00:30;;;;;;;24.30;11.30;;;;;;;-2.19;100.00;100083.59;4970668;28;20019;-96
2023/03/08 00:02:59;;;;;;;21.33;10.25;;;;;;;-2.21;100.00;100080.16;4979305;28;20032;-96
2023/03/08 00:05:47;;;;;;;20.48;10.38;;;;;;;-2.16;100.00;100093.78;4971615;28;20053;-96
2023/03/08 00:08:18;;;;;;;22.10;10.68;;;;;;;-2.12;100.00;100104.84;4955700;28;20780;-94
2023/03/08 00:10:55;;;;;;;23.33;11.32;;;;;;;-2.30;100.00;100069.00;4958787;28;20081;-95
2023/03/08 00:13:21;;;;;;;31.15;11.60;;;;;;;-2.33;100.00;100059.69;4940609;28;20039;-96
2023/03/08 00:15:49;;;;;;;25.00;11.43;;;;;;;-2.23;100.00;100080.97;4969506;28;20041;-92
2023/03/08 00:18:38;;;;;;;26.77;12.00;;;;;;;-2.34;100.00;100057.97;4964501;28;20511;-94
2023/03/08 00:21:11;;;;;;;25.95;11.77;;;;;;;-2.16;100.00;100082.75;4975807;28;20027;-93
2023/03/08 00:26:09;;;;;;;32.72;13.10;;;;;;;-2.10;100.00;100093.88;5004082;23;20358;-92
2023/03/08 00:28:34;;;;;;;28.00;12.70;;;;;;;-2.09;100.00;100087.09;5029352;23;20077;-83
2023/03/08 00:31:02;;;;;;;27.38;12.57;;;;;;;-2.07;100.00;100077.84;5000536;23;20054;-83
2023/03/08 00:33:29;;;;;;;31.67;13.65;;;;;;;-2.01;100.00;100088.94;4956238;28;20039;-83
2023/03/08 00:38:25;;;;;;;34.25;13.48;;;;;;;-1.88;100.00;100089.97;5022683;23;20059;-85
2023/03/08 00:43:20;;;;;;;31.70;13.88;;;;;;;-1.81;100.00;100081.59;4095845;23;20486;-93
2023/03/08 00:46:00;;;;;;;31.67;14.18;;;;;;;-1.85;100.00;100056.16;4987122;23;20060;-94
2023/03/08 00:48:58;;;;;;;39.80;14.95;;;;;;;-1.78;100.00;100065.56;4917984;29;21497;-93
2023/03/08 00:51:45;;;;;;;;;;;;;;;;;;;;;
2023/03/08 00:54:53;;;;;;;30.00;14.18;;;;;;;-1.72;100.00;100065.63;4931564;29;20036;-94
2023/03/08 00:57:32;;;;;;;33.28;15.30;;;;;;;-1.62;100.00;100072.53;4931803;29;20345;-94
2023/03/08 01:03:38;;;;;;;32.75;14.38;;;;;;;-1.70;100.00;100064.78;4908658;29;20504;-94
2023/03/08 01:06:43;;;;;;;32.22;14.10;;;;;;;-1.72;100.00;100050.38;4917772;29;20122;-94
2023/03/08 01:10:05;;;;;;;;;;;;;;;;;;;;;
2023/03/08 01:12:42;;;;;;;34.33;15.02;;;;;;;-1.73;100.00;100061.38;4848700;29;20056;-94
2023/03/08 01:15:10;;;;;;;40.35;15.50;;;;;;;-1.79;100.00;100046.06;4836893;29;20026;-94
2023/03/08 01:17:52;;;;;;;38.38;16.13;;;;;;;-1.76;100.00;100039.31;4853119;29;20045;-93
2023/03/08 01:20:38;;;;;;;37.80;17.33;;;;;;;-1.65;100.00;100050.50;4879894;29;20052;-93
2023/03/08 01:23:55;;;;;;;38.33;16.40;;;;;;;-1.63;100.00;100042.88;4912156;29;20040;-93
2023/03/08 01:26:57;;;;;;;;;;;;;;;;;;;;;
2023/03/08 01:40:21;;;;;;;;;;;;;;;;;;;;;
2023/03/08 01:43:37;;;;;;;37.47;16.50;;;;;;;-1.69;100.00;99981.81;4906583;29;20127;-94
2023/03/08 01:46:41;;;;;;;42.70;18.05;;;;;;;-1.53;100.00;100008.28;4890068;29;20104;-96
2023/03/08 01:50:13;;;;;;;;;;;;;;;;;;;;;
2023/03/08 02:02:49;;;;;;;;;;;;;;;;;;;;;
2023/03/08 02:05:43;;;;;;;45.70;19.15;;;;;;;-1.25;100.00;99978.09;4913486;29;20036;-95
2023/03/08 02:09:03;;;;;;;;;;;;;;;;;;;;;
2023/03/08 02:12:13;;;;;;;45.65;18.67;;;;;;;-1.12;100.00;99994.31;4839397;29;20040;-95
2023/03/08 02:15:20;;;;;;;42.10;18.27;;;;;;;-1.11;100.00;99980.75;4857532;29;20068;-94
2023/03/08 02:29:37;;;;;;;46.65;19.58;;;;;;;-1.05;100.00;99929.09;4775019;29;20961;-95
2023/03/08 02:35:28;;;;;;;52.65;20.40;;;;;;;-0.97;100.00;99925.78;4765480;30;20737;-95
2023/03/08 02:39:20;;;;;;;;;;;;;;;;;;;;;
2023/03/08 02:42:10;;;;;;;44.40;18.63;;;;;;;-0.85;100.00;99935.19;4715119;30;20049;-96
2023/03/08 02:45:05;;;;;;;48.63;20.33;;;;;;;-0.90;100.00;99917.38;4700652;30;20037;-96
2023/03/08 02:51:08;;;;;;;50.55;20.20;;;;;;;-0.74;100.00;99930.16;4827679;29;20062;-96
2023/03/08 02:54:37;;;;;;;49.97;20.65;;;;;;;-0.72;100.00;99923.41;4836060;29;20076;-95
2023/03/08 02:57:47;;;;;;;;;;;;;;;;;;;;;
2023/03/08 03:12:20;;;;;;;53.05;21.08;;;;;;;-0.61;100.00;99914.13;5078483;23;20513;-93
2023/03/08 03:17:16;;;;;;;54.70;21.80;;;;;;;-0.55;100.00;99902.34;4976257;23;20051;-86
2023/03/08 03:22:11;;;;;;;58.67;21.98;;;;;;;-0.56;100.00;99879.41;4969832;23;20059;-92
2023/03/08 03:24:36;;;;;;;59.47;21.55;;;;;;;-0.54;100.00;99888.75;4941921;28;20375;-93
2023/03/08 03:27:02;;;;;;;61.33;22.73;;;;;;;-0.60;100.00;99873.44;4944126;28;20090;-92
2023/03/08 03:40:14;;;;;;;55.35;20.05;;;;;;;-0.62;100.00;99848.84;4890229;29;20422;-95
2023/03/08 03:43:39;;;;;;;;;;;;;;;;;;;;;
2023/03/08 03:46:48;;;;;;;57.92;21.20;;;;;;;-0.50;100.00;99849.75;4844289;29;20048;-94
2023/03/08 03:49:51;;;;;;;47.72;19.17;;;;;;;-0.58;100.00;99830.19;4890722;28;20046;-94
2023/03/08 03:56:32;;;;;;;;;;;;;;;;;;;;;
2023/03/08 03:59:33;;;;;;;52.58;20.85;;;;;;;-0.47;100.00;99838.72;4852111;29;20048;-95
2023/03/08 04:02:25;;;;;;;60.20;20.95;;;;;;;-0.41;100.00;99833.69;4878959;29;20045;-95
2023/03/08 04:08:44;;;;;;;;;;;;;;;;;;;;;
2023/03/08 04:11:37;;;;;;;;;;;;;;;;;;;;;
2023/03/08 04:20:48;;;;;;;55.78;19.75;;;;;;;-0.44;100.00;99803.13;4889595;29;20409;-94
2023/03/08 04:26:53;;;;;;;;;;;;;;;;;;;;;
2023/03/08 04:30:08;;;;;;;53.53;19.40;;;;;;;-0.44;100.00;99783.59;4857884;29;20036;-95
2023/03/08 04:33:19;;;;;;;57.08;20.10;;;;;;;-0.45;100.00;99788.69;4912194;29;20056;-94
2023/03/08 04:36:23;;;;;;;55.17;19.35;;;;;;;-0.46;100.00;99779.34;4916785;29;20119;-96
2023/03/08 04:39:37;;;;;;;;;;;;;;;;;;;;;
2023/03/08 04:42:42;;;;;;;;;;;;;;;;;;;;;
2023/03/08 04:45:08;;;;;;;55.85;18.67;;;;;;;-0.37;100.00;99774.28;4900741;29;20399;-95
2023/03/08 04:47:41;;;;;;;53.60;18.00;;;;;;;-0.41;100.00;99753.06;4935263;29;20526;-95
2023/03/08 04:50:14;;;;;;;49.60;16.98;;;;;;;-0.45;100.00;99745.41;4900482;29;20412;-95
2023/03/08 04:52:56;;;;;;;;;;;;;;;;;;;;;
2023/03/08 04:56:32;;;;;;;;;;;;;;;;;;;;;
2023/03/08 05:00:26;;;;;;;51.80;17.23;;;;;;;-0.39;100.00;99737.78;4856957;29;20048;-95
2023/03/08 05:03:05;;;;;;;;;;;;;;;;;;;;;
2023/03/08 05:12:50;;;;;;;50.72;17.15;;;;;;;-0.35;100.00;99706.44;4905266;29;20040;-96
2023/03/08 05:15:53;;;;;;;52.72;18.13;;;;;;;-0.27;100.00;99709.00;4921076;29;20038;-95
2023/03/08 05:22:21;;;;;;;50.70;17.52;;;;;;;-0.22;100.00;99697.97;4902739;29;20864;-95
2023/03/08 05:25:21;;;;;;;53.80;16.88;;;;;;;-0.18;100.00;99703.88;4833641;29;20045;-95
2023/03/08 05:28:19;;;;;;;;;;;;;;;;;;;;;
2023/03/08 05:31:28;;;;;;;48.78;16.77;;;;;;;-0.14;100.00;99682.69;4910750;29;20511;-96
2023/03/08 05:37:30;;;;;;;;;;;;;;;;;;;;;
2023/03/08 05:40:29;;;;;;;51.63;17.77;;;;;;;-0.12;100.00;99669.09;4835367;29;20053;-94
2023/03/08 05:43:23;;;;;;;50.00;16.30;;;;;;;-0.11;100.00;99659.75;4838116;29;20040;-94
2023/03/08 05:46:29;;;;;;;48.85;16.38;;;;;;;-0.09;100.00;99652.97;4799195;29;20091;-95
2023/03/08 05:49:07;;;;;;;45.83;16.30;;;;;;;-0.15;100.00;99642.78;4783968;29;20043;-95
2023/03/08 05:52:09;;;;;;;51.25;17.40;;;;;;;-0.03;100.00;99651.28;4789869;29;20459;-94
2023/03/08 05:55:20;;;;;;;45.45;16.02;;;;;;;0.00;100.00;99650.44;4798228;29;20058;-95
2023/03/08 05:58:08;;;;;;;50.25;16.67;;;;;;;-0.09;100.00;99632.59;4748751;30;20059;-94
2023/03/08 06:01:07;;;;;;;49.78;16.70;;;;;;;-0.12;100.00;99624.94;4734484;30;20182;-94
2023/03/08 06:03:47;;;;;;;48.92;15.65;;;;;;;-0.14;100.00;99612.25;4728410;30;20144;-93
2023/03/08 06:06:38;;;;;;;46.78;15.82;;;;;;;-0.12;100.00;99607.13;4748490;29;20171;-93
2023/03/08 06:16:14;;;;;;;42.22;15.82;;;;;;;-0.01;100.00;99625.81;4844802;29;20045;-95
2023/03/08 06:21:43;;;;;;;44.25;15.13;;;;;;;-0.10;100.00;99605.44;4760932;30;20039;-96
2023/03/08 06:24:16;;;;;;;44.63;15.55;;;;;;;-0.05;100.00;99613.91;4886279;29;20036;-95
2023/03/08 06:26:55;;;;;;;45.97;15.37;;;;;;;-0.15;100.00;99596.97;4873114;29;20041;-94
2023/03/08 06:29:47;;;;;;;43.47;15.38;;;;;;;-0.12;100.00;99602.88;4877432;29;20292;-95
2023/03/08 06:32:23;;;;;;;41.72;14.13;;;;;;;-0.08;100.00;99601.19;4879341;29;20409;-95
2023/03/08 06:35:21;;;;;;;42.50;13.82;;;;;;;-0.15;100.00;99599.50;4907244;29;20028;-94
2023/03/08 06:38:16;;;;;;;;;;;;;;;;;;;;;
2023/03/08 06:40:54;;;;;;;42.65;13.93;;;;;;;-0.09;100.00;99613.06;4914740;29;20053;-94
2023/03/08 06:43:31;;;;;;;38.85;13.25;;;;;;;-0.20;100.00;99589.28;4918536;29;20024;-94
2023/03/08 06:46:04;;;;;;;32.55;11.80;;;;;;;-0.22;100.00;99579.97;4904435;29;20028;-94
2023/03/08 06:48:33;;;;;;;29.50;10.20;;;;;;;-0.26;100.00;99581.66;4913988;29;21032;-95
2023/03/08 06:51:08;;;;;;;24.25;9.77;;;;;;;-0.36;100.00;99587.63;4930664;29;20035;-94
2023/03/08 06:53:37;;;;;;;23.13;8.50;;;;;;;-0.43;100.00;99591.03;4939110;28;20038;-95
2023/03/08 06:56:29;;;;;;;25.33;8.88;;;;;;;-0.47;100.00;99584.22;4933908;28;20035;-94
2023/03/08 06:58:54;;;;;;;20.67;8.57;;;;;;;-0.42;100.00;99592.72;4992720;23;20094;-91
2023/03/08 07:01:20;;;;;;;20.17;8.02;;;;;;;-0.44;100.00;99595.25;4952067;28;20110;-91
2023/03/08 07:03:47;;;;;;;22.67;8.25;;;;;;;-0.38;100.00;99609.69;4958778;23;20143;-82
2023/03/08 07:06:13;;;;;;;21.17;7.82;;;;;;;-0.34;100.00;99615.63;4963870;23;20524;-91
2023/03/08 07:08:58;;;;;;;;;;;;;;;;;;;;;
2023/03/08 07:11:25;;;;;;;22.23;8.38;;;;;;;-0.49;100.00;99581.69;4953752;28;20047;-94
2023/03/08 07:13:54;;;;;;;21.15;7.93;;;;;;;-0.47;100.00;99589.31;4948632;28;20036;-93
2023/03/08 07:16:28;;;;;;;24.27;8.20;;;;;;;-0.44;100.00;99587.63;4921700;29;20102;-93
2023/03/08 07:19:30;;;;;;;22.65;8.40;;;;;;;-0.45;100.00;99580.84;4911446;29;20027;-94
2023/03/08 07:21:58;;;;;;;20.08;7.70;;;;;;;-0.38;100.00;99589.31;4900251;29;20051;-92
2023/03/08 07:24:27;;;;;;;22.27;7.50;;;;;;;-0.35;100.00;99593.56;4913020;29;20059;-91
2023/03/08 07:26:52;;;;;;;24.25;7.65;;;;;;;-0.48;100.00;99567.28;4928723;29;20074;-91
2023/03/08 07:29:23;;;;;;;21.92;7.80;;;;;;;-0.35;100.00;99579.16;4932109;29;20024;-93
2023/03/08 07:31:51;;;;;;;20.77;7.50;;;;;;;-0.45;100.00;99565.56;4932728;29;20062;-93
2023/03/08 07:34:38;;;;;;;18.92;7.03;;;;;;;-0.53;100.00;99548.59;4932144;29;20263;-93
2023/03/08 07:37:19;;;;;;;19.23;7.07;;;;;;;-0.54;100.00;99554.53;4931746;29;20055;-94
2023/03/08 07:39:44;;;;;;;20.67;7.32;;;;;;;-0.55;100.00;99550.31;4908953;29;20094;-94
2023/03/08 07:42:59;;;;;;;21.13;7.60;;;;;;;-0.50;100.00;99554.53;4930916;29;20575;-93
2023/03/08 07:45:48;;;;;;;22.15;7.72;;;;;;;-0.42;100.00;99564.72;4927435;29;20039;-93
2023/03/08 07:48:15;;;;;;;19.73;7.47;;;;;;;-0.49;100.00;99551.16;4932789;29;20058;-93
2023/03/08 07:51:08;;;;;;;22.02;6.95;;;;;;;-0.46;100.00;99550.28;4933833;29;20032;-93
2023/03/08 07:53:42;;;;;;;20.75;7.47;;;;;;;-0.43;100.00;99542.66;4915702;29;20071;-93
2023/03/08 07:56:15;;;;;;;18.85;7.45;;;;;;;-0.48;100.00;99542.63;4930864;29;20051;-93
2023/03/08 07:58:43;;;;;;;20.60;7.82;;;;;;;-0.44;100.00;99539.25;4913794;29;20078;-94
2023/03/08 08:01:18;;;;;;;22.27;8.55;;;;;;;-0.46;100.00;99532.47;4915041;29;20028;-94
2023/03/08 08:03:58;;;;;;;19.05;6.97;;;;;;;-0.43;100.00;99547.75;4915685;29;20597;-94
2023/03/08 08:06:27;;;;;;;19.98;7.07;;;;;;;-0.52;100.00;99545.19;4934007;29;20098;-93
2023/03/08 08:09:22;;;;;;;18.77;6.30;;;;;;;-0.55;100.00;99535.88;4916506;29;20513;-93
2023/03/08 08:11:47;;;;;;;21.90;7.07;;;;;;;-0.68;100.00;99518.06;4934093;29;20103;-93
2023/03/08 08:14:16;;;;;;;23.25;7.72;;;;;;;-0.60;100.00;99524.84;4918715;29;20515;-94
2023/03/08 08:16:43;;;;;;;22.65;7.82;;;;;;;-0.52;100.00;99528.22;4917168;29;20579;-91
2023/03/08 08:19:18;;;;;;;22.85;8.63;;;;;;;-0.53;100.00;99518.91;4935880;29;20024;-93
2023/03/08 08:21:52;;;;;;;22.42;8.05;;;;;;;-0.40;100.00;99530.75;4936092;29;20146;-93
2023/03/08 08:24:17;;;;;;;20.05;7.88;;;;;;;-0.58;100.00;99510.44;4918540;29;20041;-93
2023/03/08 08:26:48;;;;;;;20.52;7.95;;;;;;;-0.48;100.00;99522.28;4935425;29;20063;-93
2023/03/08 08:29:40;;;;;;;22.25;8.18;;;;;;;-0.39;100.00;99526.53;4919109;29;20035;-93
2023/03/08 08:32:18;;;;;;;;;;;;;;;;;;;;;
2023/03/08 08:35:04;;;;;;;;;;;;;;;;;;;;;
2023/03/08 08:37:33;;;;;;;22.45;7.82;;;;;;;-0.48;100.00;99516.38;4934496;29;20027;-93
2023/03/08 08:39:59;;;;;;;20.60;7.43;;;;;;;-0.61;100.00;99489.22;4935812;29;20035;-93
2023/03/08 08:42:42;;;;;;;20.27;7.90;;;;;;;-0.60;100.00;99486.66;4933638;29;20034;-93
2023/03/08 08:45:11;;;;;;;20.55;8.05;;;;;;;-0.70;100.00;99464.66;4935163;29;20586;-93
2023/03/08 08:47:44;;;;;;;20.63;7.65;;;;;;;-0.58;100.00;99496.84;4935525;29;20495;-94
2023/03/08 08:50:10;;;;;;;20.50;7.30;;;;;;;-0.72;100.00;99476.50;4927999;29;20031;-93
2023/03/08 08:52:35;;;;;;;17.10;6.47;;;;;;;-0.81;100.00;99472.25;4917158;29;20117;-94
2023/03/08 08:55:00;;;;;;;15.18;5.22;;;;;;;-0.69;100.00;99498.56;4935816;29;20039;-92
2023/03/08 08:57:29;;;;;;;14.52;5.35;;;;;;;-0.84;100.00;99461.25;4935055;29;20037;-94
2023/03/08 08:59:57;;;;;;;14.15;4.90;;;;;;;-0.74;100.00;99484.97;4934492;29;20032;-94
2023/03/08 09:02:23;;;;;;;13.57;4.95;;;;;;;-0.65;100.00;99497.69;4932749;29;20038;-93
2023/03/08 09:04:48;;;;;;;15.85;4.88;;;;;;;-0.73;100.00;99487.53;4934578;29;20050;-93
2023/03/08 09:07:14;;;;;;;17.35;5.53;;;;;;;-0.61;100.00;99491.75;4935296;29;20087;-93
2023/03/08 09:09:39;;;;;;;15.88;5.53;;;;;;;-0.68;100.00;99488.38;4934678;29;20030;-93
2023/03/08 09:12:05;;;;;;;15.60;5.57;;;;;;;-0.49;100.00;99510.44;4935075;29;20063;-94
2023/03/08 09:14:31;;;;;;;16.95;6.13;;;;;;;-0.49;100.00;99505.34;4934999;29;20441;-93
2023/03/08 09:16:56;;;;;;;17.23;6.53;;;;;;;-0.41;100.00;99518.06;4932588;28;20488;-94
2023/03/08 09:19:21;;;;;;;19.15;6.15;;;;;;;-0.46;100.00;99497.69;4934791;29;20187;-93
2023/03/08 09:21:47;;;;;;;18.75;6.68;;;;;;;-0.51;100.00;99470.56;4912036;29;20030;-93
2023/03/08 09:24:12;;;;;;;20.30;6.93;;;;;;;-0.52;100.00;99446.81;4932645;29;20039;-93
2023/03/08 09:26:38;;;;;;;22.67;7.88;;;;;;;-0.39;100.00;99450.16;4915813;29;20019;-93
2023/03/08 09:29:06;;;;;;;24.08;8.52;;;;;;;-0.41;100.00;99446.81;4934160;29;20027;-93
2023/03/08 09:31:42;;;;;;;23.90;7.97;;;;;;;-0.44;100.00;99439.16;4915674;29;20047;-93
2023/03/08 09:34:18;;;;;;;24.92;8.98;;;;;;;-0.31;100.00;99448.44;4932309;29;20524;-92
2023/03/08 09:36:48;;;;;;;30.75;10.05;;;;;;;-0.44;100.00;99426.44;4934310;29;20516;-92
2023/03/08 09:39:14;;;;;;;27.92;9.10;;;;;;;-0.45;100.00;99420.50;4915396;29;20106;-93
2023/03/08 09:41:46;;;;;;;31.40;10.88;;;;;;;-0.21;100.00;99422.13;4933479;29;20358;-92
2023/03/08 09:44:45;;;;;;;31.88;10.50;;;;;;;0.01;100.00;99435.59;4917858;29;20070;-92
2023/03/08 09:47:38;;;;;;;36.45;11.50;;;;;;;0.00;100.00;99418.66;4915838;29;20038;-92
2023/03/08 09:50:14;;;;;;;37.83;12.55;;;;;;;-0.03;100.00;99432.25;4934521;29;20392;-92
2023/03/08 09:52:47;;;;;;;38.50;12.02;;;;;;;-0.23;100.00;99397.53;4914802;29;20032;-93
2023/03/08 09:55:17;;;;;;;36.22;11.60;;;;;;;-0.13;100.00;99388.97;4932647;29;20396;-91
2023/03/08 09:57:51;;;;;;;45.85;13.40;;;;;;;-0.05;100.00;99387.25;4933543;29;20027;-91
2023/03/08 10:00:25;;;;;;;43.67;13.93;;;;;;;0.02;100.00;99403.34;4915831;29;20522;-94
2023/03/08 10:03:17;;;;;;;51.17;14.25;;;;;;;0.29;100.00;99419.34;4917372;29;20159;-96
2023/03/08 10:05:59;;;;;;;52.75;16.08;;;;;;;0.44;100.00;99403.13;4932878;28;20429;-95
2023/03/08 10:08:45;;;;;;;54.55;15.27;;;;;;;0.39;100.00;99371.75;4927881;29;20496;-95
2023/03/08 10:11:31;;;;;;;54.45;15.55;;;;;;;0.54;100.00;99368.25;4928402;29;20127;-96
2023/03/08 10:14:02;;;;;;;50.53;16.10;;;;;;;0.66;100.00;99370.69;4917819;29;20031;-95
2023/03/08 10:16:48;;;;;;;60.05;16.58;;;;;;;0.97;100.00;99396.78;4921819;29;20031;-96
2023/03/08 10:19:57;;;;;;;56.88;17.35;;;;;;;1.11;100.00;99395.81;4930202;29;20039;-96
2023/03/08 10:22:47;;;;;;;;;;;;;;;;;;;;;
2023/03/08 10:26:20;;;;;;;;;;;;;;;;;;;;;
2023/03/08 10:28:42;;;;;;;51.00;16.02;;;;;;;1.44;100.00;99399.75;4970925;23;23721;-90
2023/03/08 10:33:37;;;;;;;36.53;15.05;;;;;;;1.29;100.00;99396.50;5026074;23;20538;-84
2023/03/08 10:36:11;;;;;;;39.25;14.75;;;;;;;1.37;100.00;99393.00;4954484;28;20169;-83
2023/03/08 10:38:37;;;;;;;37.63;14.23;;;;;;;1.38;100.00;99384.50;4949212;28;20033;-84
2023/03/08 10:43:55;;;;;;;31.83;12.45;;;;;;;1.46;100.00;99386.97;5037265;23;20552;-84
2023/03/08 10:46:23;;;;;;;35.80;14.40;;;;;;;1.47;100.00;99384.41;5054832;23;20056;-89
2023/03/08 10:49:07;;;;;;;33.60;13.30;;;;;;;1.56;100.00;99374.09;3282930;23;21471;-89
2023/03/08 10:51:33;;;;;;;38.30;14.10;;;;;;;1.50;100.00;99373.31;4875742;29;20089;-83
2023/03/08 10:58:58;;;;;;;34.28;12.98;;;;;;;1.39;100.00;99336.84;2661427;23;20048;-95
2023/03/08 11:01:25;;;;;;;36.88;14.40;;;;;;;1.74;100.00;99357.72;4948232;29;20058;-96
2023/03/08 11:04:14;;;;;;;35.13;14.00;;;;;;;1.97;100.00;99367.66;4944917;29;20031;-95
2023/03/08 11:06:41;;;;;;;32.70;13.75;;;;;;;1.90;100.00;99364.34;4926720;29;20027;-94
2023/03/08 11:09:29;;;;;;;30.80;12.90;;;;;;;2.14;100.00;99378.47;4937560;28;20138;-92
2023/03/08 11:12:35;;;;;;;26.88;11.13;;;;;;;2.05;100.00;99385.44;4931049;29;20039;-91
2023/03/08 11:15:08;;;;;;;25.15;11.05;;;;;;;1.70;100.00;99360.31;4917546;29;20442;-91
2023/03/08 11:17:38;;;;;;;25.42;10.30;;;;;;;1.54;100.00;99363.06;4919346;29;20078;-91
2023/03/08 11:20:23;;;;;;;23.13;9.52;;;;;;;1.46;100.00;99377.59;4928032;29;20031;-91
2023/03/08 11:23:03;;;;;;;23.38;10.80;;;;;;;1.21;100.00;99345.53;4924709;28;20460;-92
2023/03/08 11:25:41;;;;;;;25.75;11.00;;;;;;;1.30;100.00;99388.81;4912374;29;20034;-91
2023/03/08 11:28:34;;;;;;;22.85;10.55;;;;;;;1.18;100.00;99388.94;4929537;28;20031;-92
2023/03/08 11:31:33;;;;;;;22.42;9.98;;;;;;;0.96;100.00;99365.31;4929130;28;20069;-92
2023/03/08 11:34:24;;;;;;;21.77;9.95;;;;;;;0.94;100.00;99356.00;4919011;29;20027;-92
2023/03/08 11:37:14;;;;;;;26.55;10.48;;;;;;;1.27;100.00;99377.81;4934432;29;20191;-91
2023/03/08 11:39:50;;;;;;;19.00;9.32;;;;;;;1.24;100.00;99335.28;4933665;28;20063;-94
2023/03/08 11:42:35;;;;;;;25.27;10.75;;;;;;;1.40;100.00;99367.47;4925536;29;20130;-94
2023/03/08 11:45:19;;;;;;;;;;;;;;;1.27;100.00;99363.34;4936436;29;20031;-93
2023/03/08 11:48:05;;;;;;;19.85;9.50;;;;;;;1.20;100.00;99359.16;4935776;28;19969;-92
2023/03/08 11:50:36;;;;;;;26.05;10.63;;;;;;;1.09;100.00;99346.50;4937475;29;20303;-93
2023/03/08 11:53:23;;;;;;;25.00;10.35;;;;;;;1.18;100.00;99331.09;4931844;28;20488;-94
2023/03/08 11:56:39;;;;;;;27.90;11.43;;;;;;;1.29;100.00;99340.38;4929954;28;20675;-94
2023/03/08 11:59:20;;;;;;;23.42;10.70;;;;;;;1.28;100.00;99331.88;4914903;28;20067;-93
2023/03/08 12:02:17;;;;;;;22.38;9.65;;;;;;;1.17;100.00;99301.34;4934519;29;20425;-93
2023/03/08 12:05:20;;;;;;;20.92;9.85;;;;;;;1.31;100.00;99338.63;4907880;29;20045;-93
2023/03/08 12:08:14;;;;;;;22.98;10.25;;;;;;;1.24;100.00;99337.00;4918220;29;20451;-93
2023/03/08 12:13:49;;;;;;;18.85;8.40;;;;;;;1.22;100.00;99297.91;4926518;29;20500;-94
2023/03/08 12:16:32;;;;;;;19.05;8.57;;;;;;;1.35;100.00;99320.72;4934685;29;20033;-92
2023/03/08 12:19:25;;;;;;;18.50;7.57;;;;;;;1.45;100.00;99322.28;4934515;29;20115;-92
2023/03/08 12:22:04;;;;;;;16.42;7.43;;;;;;;1.32;100.00;99286.72;4934161;29;20737;-92
2023/03/08 12:24:48;;;;;;;18.85;7.38;;;;;;;1.49;100.00;99318.88;4925785;29;20062;-92
2023/03/08 12:27:34;;;;;;;17.42;7.93;;;;;;;1.33;100.00;99303.72;4916711;29;20027;-92
2023/03/08 12:30:30;;;;;;;19.38;8.05;;;;;;;1.45;100.00;99337.63;4933274;29;20031;-92
2023/03/08 12:33:00;;;;;;;16.70;7.72;;;;;;;1.42;100.00;99329.16;4924828;29;20060;-93
2023/03/08 12:35:28;;;;;;;18.70;8.18;;;;;;;1.33;100.00;99322.44;4928497;29;20058;-92
2023/03/08 12:38:08;;;;;;;19.27;8.13;;;;;;;1.35;100.00;99310.50;4916440;29;20038;-92
2023/03/08 12:40:50;;;;;;;17.23;7.82;;;;;;;1.48;100.00;99319.72;4929710;28;20158;-92
2023/03/08 12:43:27;;;;;;;19.25;8.23;;;;;;;1.51;100.00;99327.31;4933882;29;20157;-91
2023/03/08 12:46:04;;;;;;;18.23;7.95;;;;;;;1.35;100.00;99332.63;4924106;29;20508;-92
2023/03/08 12:48:36;;;;;;;16.45;7.50;;;;;;;1.24;100.00;99326.78;4928693;29;20071;-92
2023/03/08 12:51:10;;;;;;;15.88;7.18;;;;;;;1.28;100.00;99321.66;4932083;29;20489;-94
2023/03/08 12:53:47;;;;;;;17.77;7.68;;;;;;;1.33;100.00;99301.19;4934281;29;20031;-93
2023/03/08 12:56:16;;;;;;;16.50;7.53;;;;;;;1.48;100.00;99289.09;4933445;29;20400;-93
2023/03/08 12:58:56;;;;;;;16.88;8.15;;;;;;;1.51;100.00;99266.06;4923626;29;20059;-93
2023/03/08 13:01:53;;;;;;;19.67;7.57;;;;;;;1.56;100.00;99246.44;4932410;29;20063;-93
2023/03/08 13:04:31;;;;;;;17.35;7.43;;;;;;;1.82;100.00;99265.66;4913551;29;20401;-93
2023/03/08 13:07:08;;;;;;;17.23;7.38;;;;;;;1.81;100.00;99257.16;4932872;29;20042;-93
2023/03/08 13:09:45;;;;;;;17.45;7.50;;;;;;;1.74;100.00;99240.22;4912752;29;20042;-94
2023/03/08 13:12:27;;;;;;;16.02;7.22;;;;;;;1.87;100.00;99251.94;4933438;29;20078;-93
2023/03/08 13:15:16;;;;;;;15.93;6.75;;;;;;;1.83;100.00;99263.09;4929161;28;20067;-93
2023/03/08 13:17:54;;;;;;;14.60;6.65;;;;;;;1.55;100.00;99231.13;4915884;29;20031;-93
2023/03/08 13:20:35;;;;;;;14.57;7.15;;;;;;;1.47;100.00;99232.94;4933842;29;20494;-93
2023/03/08 13:23:13;;;;;;;18.00;7.60;;;;;;;1.62;100.00;99275.31;4927980;29;20042;-93
2023/03/08 13:26:20;;;;;;;15.75;7.28;;;;;;;1.45;100.00;99271.25;4935243;29;20496;-93
2023/03/08 13:28:48;;;;;;;15.77;7.10;;;;;;;1.32;100.00;99253.53;4919806;29;20496;-93
2023/03/08 13:31:20;;;;;;;16.27;7.30;;;;;;;1.25;100.00;99255.31;4932751;29;20047;-93
2023/03/08 13:33:49;;;;;;;15.88;7.20;;;;;;;1.23;100.00;99254.47;4932158;29;21455;-92
2023/03/08 13:36:28;;;;;;;16.85;7.60;;;;;;;1.33;100.00;99296.91;4933268;29;20136;-93
2023/03/08 13:39:19;;;;;;;15.50;7.10;;;;;;;1.19;100.00;99280.91;4932212;29;20038;-92
2023/03/08 13:41:48;;;;;;;16.90;7.82;;;;;;;1.23;100.00;99274.09;4915358;29;20457;-93
2023/03/08 13:44:20;;;;;;;16.73;7.85;;;;;;;1.34;100.00;99274.78;4930164;29;20035;-93
2023/03/08 13:46:48;;;;;;;16.75;7.60;;;;;;;1.41;100.00;99287.47;4926784;29;20035;-93
2023/03/08 13:49:34;;;;;;;16.10;7.38;;;;;;;1.46;100.00;99287.41;4916933;29;20027;-92
2023/03/08 13:52:02;;;;;;;16.63;7.15;;;;;;;1.43;100.00;99295.94;4916155;29;20044;-93
2023/03/08 13:54:35;;;;;;;13.80;7.00;;;;;;;1.29;100.00;99266.34;4916306;29;20028;-93
2023/03/08 13:57:14;;;;;;;;;;;;;;;;;;;;;
2023/03/08 13:59:48;;;;;;;14.77;6.53;;;;;;;1.38;100.00;99269.63;4932443;28;20046;-92
2023/03/08 14:02:26;;;;;;;15.70;7.30;;;;;;;1.30;100.00;99260.41;4912597;29;20043;-93
2023/03/08 14:04:52;;;;;;;15.45;7.05;;;;;;;1.29;100.00;99254.44;4915678;29;20028;-93
2023/03/08 14:07:27;;;;;;;14.10;7.05;;;;;;;1.29;100.00;99248.50;4930812;29;20043;-93
2023/03/08 14:09:55;;;;;;;15.30;7.05;;;;;;;1.35;100.00;99239.06;4914859;29;20043;-93
2023/03/08 14:12:28;;;;;;;16.85;7.45;;;;;;;1.45;100.00;99243.16;4914046;29;20032;-93
2023/03/08 14:14:57;;;;;;;16.45;7.10;;;;;;;1.51;100.00;99253.28;4927280;29;20024;-93
2023/03/08 14:17:33;;;;;;;14.27;7.22;;;;;;;1.56;100.00;99250.69;4917956;29;21003;-93
2023/03/08 14:20:03;;;;;;;17.55;7.63;;;;;;;1.47;100.00;99235.47;4927902;29;20032;-93
2023/03/08 14:22:30;;;;;;;15.43;7.18;;;;;;;1.50;100.00;99220.16;4924474;29;20032;-92
2023/03/08 14:25:00;;;;;;;15.88;7.72;;;;;;;1.71;100.00;99235.16;4931012;29;20031;-93
2023/03/08 14:27:39;;;;;;;15.50;7.03;;;;;;;1.74;100.00;99234.28;4918500;29;20036;-93
2023/03/08 14:30:29;;;;;;;13.43;6.15;;;;;;;1.57;100.00;99237.03;4931525;29;20050;-94
2023/03/08 14:32:58;;;;;;;14.70;6.57;;;;;;;1.43;100.00;99227.00;4927182;28;20074;-93
2023/03/08 14:35:27;;;;;;;12.48;6.13;;;;;;;1.40;100.00;99223.66;4930358;29;20043;-93
2023/03/08 14:37:54;;;;;;;12.88;6.38;;;;;;;1.40;100.00;99241.53;4931122;29;20050;-93
2023/03/08 14:40:34;;;;;;;12.90;6.72;;;;;;;1.45;100.00;99252.53;4931608;29;20075;-93
2023/03/08 14:43:04;;;;;;;12.57;5.93;;;;;;;1.43;100.00;99259.38;4931313;29;20039;-93
2023/03/08 14:45:38;;;;;;;12.93;6.25;;;;;;;1.33;100.00;99237.38;4924621;29;20030;-92
2023/03/08 14:48:18;;;;;;;12.82;6.00;;;;;;;1.43;100.00;99257.63;4930829;29;20705;-93
2023/03/08 14:50:54;;;;;;;13.07;5.93;;;;;;;1.34;100.00;99234.81;4931566;29;20032;-93
2023/03/08 14:54:00;;;;;;;15.73;7.13;;;;;;;1.30;100.00;99228.03;4919696;29;20355;-94
2023/03/08 14:56:28;;;;;;;13.52;6.10;;;;;;;1.38;100.00;99239.00;4902593;29;20039;-95
2023/03/08 14:58:57;;;;;;;16.58;6.65;;;;;;;1.35;100.00;99246.72;4931840;29;20051;-94
2023/03/08 15:01:24;;;;;;;14.68;6.60;;;;;;;1.42;100.00;99262.78;4917578;29;20742;-93
2023/03/08 15:03:50;;;;;;;15.55;6.85;;;;;;;1.42;100.00;99258.53;4931243;29;20126;-93
2023/03/08 15:06:19;;;;;;;14.88;6.53;;;;;;;1.27;100.00;99245.94;4933892;29;20102;-93
2023/03/08 15:08:51;;;;;;;15.85;6.28;;;;;;;1.39;100.00;99260.25;4934767;29;20118;-94
2023/03/08 15:11:16;;;;;;;14.95;6.75;;;;;;;1.31;100.00;99245.03;4928644;29;20031;-93